AirNav   Pilot Hours Calculator
 
 322 users online  

6NJ7 Greenwood Lake Seaplane Base
West Milford, New Jersey, USA

GOING TO WEST MILFORD?


FAA INFORMATION EFFECTIVE 07 NOVEMBER 2019

Location

FAA Identifier: 6NJ7
Lat/Long: 41-10-48.3420N 074-20-03.5450W
41-10.805700N 074-20.059083W
41.1800950,-74.3343181
(estimated)
Elevation: 635 ft. / 194 m (estimated)
Variation: 13W (1985)
From city: 3 miles NE of WEST MILFORD, NJ
Time zone: UTC -5 (UTC -4 during Daylight Saving Time)
Zip code: 07421

Seaplane Base Operations

Seaplane Base use: Private use. Permission required prior to landing
Activation date: 11/1975
Control tower: no
ARTCC: NEW YORK CENTER
FSS: MILLVILLE FLIGHT SERVICE STATION
Attendance: SAT-SUN DAWN-DUSK
Segmented circle: no

Seaplane Base Communications

WX ASOS at FWN (13 nm W): 118.525 (973-875-0859)
WX ASOS at CDW (18 nm S): 135.5 (973-575-4417)

Nearby radio navigation aids

VOR radial/distance  VOR name  Freq  Var
SAXr065/11.4SPARTA VORTAC115.7011W
HUOr151/18.0HUGUENOT VOR/DME116.1011W
TEBr339/23.4TETERBORO VOR/DME108.4011W
STWr076/26.6STILLWATER VOR/DME109.6011W
LGAr330/31.8LA GUARDIA VOR/DME113.1012W
BWZr055/31.8BROADWAY VOR/DME114.2011W
CMKr272/34.5CARMEL VOR/DME116.6012W
IGNr230/37.1KINGSTON VOR/DME117.6012W
CRIr341/39.5CANARSIE VOR/DME112.3011W

 
NDB name  Hdg/Dist  Freq  Var  ID
STANWYCK224/24.626112WSKU ... -.- ..-
CHATHAM022/26.725413WCAT -.-. .- -

Seaplane Base Services

Runway Information

Runway 3W/21W

Dimensions: 5000 x 500 ft. / 1524 x 152 m
Surface: water
RUNWAY 3W  RUNWAY 21W
Traffic pattern: leftleft

Seaplane Base Ownership and Management from official FAA records

Ownership: Privately-owned
Owner: DAVID G. MACMILLAN
222 LONGPOND RD
HEWITT, NJ 07421
Phone 201-728-8282
Manager: DAVID G. MACMILLAN
41 AIRPORT ROAD
WARWICK, NY 10990
Phone 845-987-1320

Seaplane Base Operational Statistics

Aircraft based on the field: 2
Single engine airplanes: 1
Helicopters: 1
    

Additional Remarks

FOR CD CTC NEW YORK APCH AT 516-683-2448.

Instrument Procedures

There are no published instrument procedures at 6NJ7.

Some nearby airports with instrument procedures:

4N1 - Greenwood Lake Airport (3 nm S)
KFWN - Sussex Airport (13 nm W)
N07 - Lincoln Park Airport (14 nm S)
06N - Randall Airport (15 nm N)
KCDW - Essex County Airport (18 nm S)
 
Loc | Ops | Rwys | IFR | FBO | Links
Com | Nav | Svcs | Stats | Notes
Aerial photo
No photo
 
Sectional chart

 
Airport distance calculator
Flying to Greenwood Lake Seaplane Base? Find the distance to fly.

From to 6NJ7

Sunrise and sunset
Times for 12-Nov-2019
 Local
(UTC-5)
 Zulu
(UTC)
Morning civil twilight06:1311:13
Sunrise06:4311:43
Sunset16:4021:40
Evening civil twilight17:1022:10

Current date and time
Zulu (UTC)  12-Nov-2019 08:55:05
Local (UTC-5)  12-Nov-2019 03:55:05
 
METAR
KFWN 
14nm W 
120753Z AUTO 12003KT 10SM CLR 02/M01 A2973 RMK AO2 SLP069 T00221011 $
KCDW 
18nm S 
120753Z AUTO 00000KT 7SM CLR 08/06 A2972 RMK AO2 SLP069 T00780061
KMGJ 
20nm N 
SuperAWOS
120754Z AUTO 36005KT 10SM CLR 01/M02 A2971 RMK AO2 PRESFR SLP062 T00061022
K12N 
21nm SW 
120754Z AUTO 00000KT 03/00 A2972 RMK AO1 SLP065 T00330000
KSWF 
22nm NE 
120745Z 00000KT 10SM BKN016 OVC040 01/00 A2973
KTEB 
23nm SE 
120751Z 18003KT 10SM CLR 11/10 A2971 RMK AO2 SLP060 T01110100
KMMU 
24nm S 
120835Z AUTO 00000KT 10SM SCT120 05/05 A2970 RMK AO2
TAF
KSWF 
22nm NE 
120534Z 1206/1312 VRB04KT P6SM BKN015 BKN040 FM120900 27007KT 5SM -RA BR SCT010 OVC020 FM121200 30012G20KT 3SM -RASN BR OVC012 FM121500 31014G22KT 2SM -SNRA BR OVC010 FM121700 32016G24KT P6SM BKN020 FM121900 32016G28KT P6SM SCT010 BKN100 FM130300 30014G25KT P6SM FEW250 FM131100 30011KT P6SM FEW210 AMD NOT SKED
KTEB 
23nm SE 
120534Z 1206/1312 20005KT P6SM SCT040 BKN150 BKN250 FM121100 25010G17KT 6SM -RA SCT020 OVC035 FM121300 31013G22KT 4SM -RA BR OVC015 FM121500 31013G23KT 3SM -RA BR SCT010 OVC012 FM121700 31014G24KT P6SM SCT010 BKN020 TEMPO 1217/1220 2SM -RASN FM122000 32014G24KT P6SM FEW020 BKN100 FM131000 30011G19KT P6SM FEW250
NOTAMs
Click for the latest NOTAMs
NOTAMs are issued by the DoD/FAA and will open in a separate window not controlled by AirNav.

 

 
 

Would you like to see your business listed on this page?

 If your business provides an interesting product or service to pilots, flight crews, aircraft, or users of the Greenwood Lake Seaplane Base, you should consider listing it here.  To start the listing process, click on the button below
 
Add a business
 

Other Pages about Greenwood Lake Seaplane Base

Update a link
 
Copyright © AirNav, LLC. All rights reserved. Privacy Policy  Contact